createdAt,value
2022-10-15T00:01:13.093Z,39.95
2022-10-15T00:07:45.014Z,39.98
2022-10-15T00:14:16.113Z,39.82
2022-10-15T00:20:56.171Z,39.89
2022-10-15T00:27:21.093Z,39.84
2022-10-15T00:33:49.302Z,39.91
2022-10-15T00:40:28.131Z,39.83
2022-10-15T00:47:22.172Z,39.94
2022-10-15T00:54:15.101Z,39.82
2022-10-15T01:01:06.205Z,39.88
2022-10-15T01:07:31.681Z,39.9
2022-10-15T01:14:17.195Z,39.89
2022-10-15T01:21:25.137Z,39.9
2022-10-15T01:28:25.123Z,39.94
2022-10-15T01:35:18.930Z,39.92
2022-10-15T01:42:33.354Z,39.95
2022-10-15T01:49:36.773Z,39.92
2022-10-15T01:56:24.382Z,39.86
2022-10-15T02:03:08.101Z,39.87
2022-10-15T02:10:10.176Z,39.88
2022-10-15T02:17:19.229Z,39.88
2022-10-15T02:24:45.459Z,39.84
2022-10-15T02:31:54.609Z,39.92
2022-10-15T02:38:39.010Z,39.95
2022-10-15T02:45:12.297Z,40
2022-10-15T02:51:47.583Z,39.92
2022-10-15T02:58:17.447Z,39.93
2022-10-15T03:04:44.112Z,39.96
2022-10-15T03:11:13.269Z,39.97
2022-10-15T03:17:39.582Z,39.88
2022-10-15T03:24:18.280Z,39.8
2022-10-15T03:30:51.911Z,39.89
2022-10-15T03:37:20.386Z,39.78
2022-10-15T03:43:55.951Z,39.87
2022-10-15T03:50:33.302Z,39.46
2022-10-15T03:57:06.195Z,39.43
2022-10-15T04:03:34.782Z,39.62
2022-10-15T04:09:59.136Z,39.68
2022-10-15T04:16:34.281Z,39.6
2022-10-15T04:23:15.166Z,39.64
2022-10-15T04:29:53.241Z,39.83
2022-10-15T04:36:33.253Z,39.89
2022-10-15T04:43:14.375Z,39.78
2022-10-15T04:49:44.219Z,39.83
2022-10-15T04:56:15.615Z,39.94
2022-10-15T05:02:47.187Z,39.73
2022-10-15T05:09:31.150Z,39.71
2022-10-15T05:16:04.497Z,39.84
2022-10-15T05:22:50.194Z,39.65
2022-10-15T05:29:28.063Z,39.42
2022-10-15T05:36:07.231Z,39.62
2022-10-15T05:42:41.930Z,39.82
2022-10-15T05:49:20.290Z,39.88
2022-10-15T05:55:49.230Z,39.89
2022-10-15T06:02:19.866Z,39.9
2022-10-15T06:08:54.241Z,39.83
2022-10-15T06:15:21.056Z,39.8
2022-10-15T06:21:47.650Z,39.94
2022-10-15T06:28:22.516Z,39.99
2022-10-15T06:34:56.983Z,40.05
2022-10-15T06:41:19.659Z,40.01
2022-10-15T06:47:44.812Z,39.96
2022-10-15T06:54:11.655Z,39.97
2022-10-15T07:00:37.809Z,39.89
2022-10-15T07:07:06.305Z,39.92
2022-10-15T07:13:39.160Z,40.03
2022-10-15T07:20:03.251Z,39.97
2022-10-15T07:26:34.816Z,40.07
2022-10-15T07:33:04.697Z,40
2022-10-15T07:39:41.827Z,39.93
2022-10-15T07:46:09.377Z,39.95
2022-10-15T07:52:47.338Z,39.63
2022-10-15T07:59:16.870Z,40.09
2022-10-15T08:05:46.193Z,39.86
2022-10-15T08:12:18.862Z,39.8
2022-10-15T08:18:48.499Z,39.85
2022-10-15T08:25:19.736Z,39.67
2022-10-15T08:31:56.395Z,39.83
2022-10-15T08:38:26.293Z,39.71
2022-10-15T08:45:09.355Z,39.85
2022-10-15T08:52:18.643Z,39.87
2022-10-15T08:59:09.412Z,39.91
2022-10-15T09:06:21.700Z,39.79
2022-10-15T09:13:33.441Z,39.84
2022-10-15T09:20:39.733Z,39.89
2022-10-15T09:27:22.599Z,39.94
2022-10-15T09:34:19.184Z,39.98
2022-10-15T09:41:25.499Z,40
2022-10-15T09:48:17.516Z,39.98
2022-10-15T09:55:18.274Z,40.02
2022-10-15T10:02:11.872Z,39.97
2022-10-15T10:09:01.284Z,39.97
2022-10-15T10:16:12.521Z,39.72
2022-10-15T10:22:58.364Z,39.67
2022-10-15T10:29:54.508Z,39.93
2022-10-15T10:37:03.355Z,39.88
2022-10-15T10:43:56.620Z,39.89
2022-10-15T10:50:58.853Z,39.92
2022-10-15T10:57:57.364Z,39.79
2022-10-15T11:04:37.470Z,39.78
2022-10-15T11:11:45.746Z,39.98
2022-10-15T11:18:58.348Z,39.89
2022-10-15T11:26:02.715Z,39.84
2022-10-15T11:33:09.661Z,39.93
2022-10-15T11:40:13.758Z,39.95
2022-10-15T11:47:01.598Z,40.08
2022-10-15T11:53:53.428Z,40.13
2022-10-15T12:00:55.821Z,39.92
2022-10-15T12:08:18.324Z,40
2022-10-15T12:15:19.369Z,39.91
2022-10-15T12:22:35.679Z,40.01
2022-10-15T12:29:30.262Z,39.85
2022-10-15T12:36:16.715Z,40
2022-10-15T12:43:12.617Z,40.05
2022-10-15T12:50:02.072Z,40.02
2022-10-15T12:56:51.435Z,40.1
2022-10-15T13:03:56.482Z,40.12
2022-10-15T13:10:42.465Z,40.16
2022-10-15T13:17:51.852Z,40.03
2022-10-15T13:24:48.983Z,40.1
2022-10-15T13:31:39.347Z,40.19
2022-10-15T13:38:33.472Z,40.14
2022-10-15T13:45:21.526Z,40.06
2022-10-15T13:52:01.747Z,39.96
2022-10-15T13:58:51.445Z,40.07
2022-10-15T14:05:53.985Z,40.03
2022-10-15T14:12:42.810Z,39.86
2022-10-15T14:19:24.327Z,39.95
2022-10-15T14:26:08.181Z,39.8
2022-10-15T14:32:54.793Z,39.88
2022-10-15T14:39:51.010Z,39.91
2022-10-15T14:46:45.392Z,39.98
2022-10-15T14:53:27.873Z,40.09
2022-10-15T15:00:33.601Z,39.96
2022-10-15T15:07:13.515Z,40.07
2022-10-15T15:13:47.160Z,40.11
2022-10-15T15:20:28.631Z,40.16
2022-10-15T15:27:05.570Z,40.18
2022-10-15T15:33:55.897Z,40.27
2022-10-15T15:40:44.006Z,40.22
2022-10-15T15:47:22.502Z,40.26
2022-10-15T15:54:01.874Z,40.17
2022-10-15T16:00:36.616Z,40.2
2022-10-15T16:07:19.916Z,40.29
2022-10-15T16:13:58.055Z,40.24
2022-10-15T16:20:25.536Z,40
2022-10-15T16:26:49.766Z,40.16
2022-10-15T16:33:21.139Z,40.07
2022-10-15T16:39:52.523Z,40.2
2022-10-15T16:46:33.586Z,40.24
2022-10-15T16:53:10.622Z,40.24
2022-10-15T16:59:42.357Z,40.13
2022-10-15T17:06:09.534Z,40.23
2022-10-15T17:12:44.441Z,40.24
2022-10-15T17:19:27.656Z,40.19
2022-10-15T17:26:03.927Z,40.04
2022-10-15T17:32:42.186Z,39.95
2022-10-15T17:39:11.453Z,39.71
2022-10-15T17:45:48.355Z,39.73
2022-10-15T17:52:23.187Z,39.74
2022-10-15T17:59:05.988Z,40.15
2022-10-15T18:05:32.465Z,40.2
2022-10-15T18:12:12.682Z,40.16
2022-10-15T18:18:39.099Z,40.23
2022-10-15T18:25:11.601Z,40.21
2022-10-15T18:31:44.621Z,40.2
2022-10-15T18:38:19.447Z,40.19
2022-10-15T18:44:52.015Z,40.25
2022-10-15T18:51:25.694Z,40.38
2022-10-15T18:57:55.551Z,40.27
2022-10-15T19:04:24.948Z,40.29
2022-10-15T19:11:03.569Z,40.22
2022-10-15T19:17:39.552Z,40.21
2022-10-15T19:24:14.465Z,40.28
2022-10-15T19:30:52.378Z,40.23
2022-10-15T19:37:34.616Z,40.28
2022-10-15T19:44:05.304Z,40.34
2022-10-15T19:50:40.810Z,40.25
2022-10-15T19:57:12.627Z,40.37
2022-10-15T20:03:53.673Z,40.32
2022-10-15T20:10:26.579Z,40.32
2022-10-15T20:16:57.913Z,40.41
2022-10-15T20:23:29.865Z,40.36
2022-10-15T20:29:56.503Z,40.31
2022-10-15T20:36:30.727Z,40.37
2022-10-15T20:43:00.700Z,40.21
2022-10-15T20:49:42.441Z,40.26
2022-10-15T20:56:15.036Z,40.19
2022-10-15T21:02:50.497Z,40.16
2022-10-15T21:09:19.738Z,39.97
2022-10-15T21:15:45.820Z,40.14
2022-10-15T21:22:15.749Z,40.04
2022-10-15T21:28:56.822Z,40.1
2022-10-15T21:35:23.782Z,40.19
2022-10-15T21:42:06.940Z,39.95
2022-10-15T21:48:40.682Z,40.26
2022-10-15T21:55:10.687Z,40.14
2022-10-15T22:01:46.293Z,40.25
2022-10-15T22:08:14.704Z,40.26
2022-10-15T22:14:48.133Z,40.32
2022-10-15T22:21:23.770Z,40.28
2022-10-15T22:28:14.712Z,40.27
2022-10-15T22:34:58.072Z,40.25
2022-10-15T22:41:30.641Z,40.28
2022-10-15T22:48:03.678Z,40.27
2022-10-15T22:54:32.782Z,40.25
2022-10-15T23:01:13.205Z,40.27
2022-10-15T23:07:49.621Z,40.3
2022-10-15T23:14:23.749Z,40.28
2022-10-15T23:20:56.529Z,40.25
2022-10-15T23:27:30.609Z,40.28
2022-10-15T23:34:03.192Z,40.24
2022-10-15T23:40:35.107Z,40.24
2022-10-15T23:47:04.130Z,40.28
2022-10-15T23:53:33.328Z,40.3
